createdAt,value
2018-04-12T00:01:53.962Z,7.80
2018-04-12T00:04:24.096Z,8.40
2018-04-12T00:06:54.281Z,9.00
2018-04-12T00:09:24.494Z,8.43
2018-04-12T00:11:54.626Z,7.90
2018-04-12T00:14:24.970Z,8.20
2018-04-12T00:16:55.524Z,8.30
2018-04-12T00:19:25.671Z,8.67
2018-04-12T00:21:56.149Z,8.03
2018-04-12T00:24:26.297Z,7.73
2018-04-12T00:26:56.875Z,7.87
2018-04-12T00:29:26.998Z,8.30
2018-04-12T00:31:57.080Z,7.40
2018-04-12T00:34:27.212Z,7.97
2018-04-12T00:36:57.313Z,8.53
2018-04-12T00:39:27.683Z,8.70
2018-04-12T00:41:57.832Z,8.63
2018-04-12T00:44:28.258Z,8.90
2018-04-12T00:46:58.344Z,8.67
2018-04-12T00:49:28.582Z,9.20
2018-04-12T00:51:58.313Z,8.80
2018-04-12T00:54:28.245Z,8.90
2018-04-12T00:56:58.807Z,9.20
2018-04-12T00:59:30.128Z,8.87
2018-04-12T01:02:02.163Z,8.57
2018-04-12T01:04:33.301Z,9.03
2018-04-12T01:07:04.550Z,8.60
2018-04-12T01:09:34.880Z,8.07
2018-04-12T01:12:05.747Z,7.47
2018-04-12T01:14:37.200Z,7.63
2018-04-12T01:17:07.912Z,7.67
2018-04-12T01:19:37.933Z,8.07
2018-04-12T01:22:09.269Z,8.47
2018-04-12T01:24:39.952Z,7.93
2018-04-12T01:27:10.301Z,9.30
2018-04-12T01:29:40.953Z,9.40
2018-04-12T01:32:11.759Z,9.33
2018-04-12T01:34:42.520Z,9.77
2018-04-12T01:37:15.978Z,9.63
2018-04-12T01:39:47.514Z,8.90
2018-04-12T01:42:18.234Z,9.47
2018-04-12T01:44:48.184Z,10.17
2018-04-12T01:47:20.859Z,9.77
2018-04-12T01:49:53.093Z,10.57
2018-04-12T01:52:23.815Z,10.40
2018-04-12T01:54:57.134Z,10.37
2018-04-12T01:57:27.532Z,10.13
2018-04-12T01:59:57.919Z,9.57
2018-04-12T02:02:28.124Z,9.50
2018-04-12T02:04:58.574Z,9.33
2018-04-12T02:07:29.240Z,10.67
2018-04-12T02:09:59.701Z,10.63
2018-04-12T02:12:29.938Z,9.63
2018-04-12T02:15:00.197Z,9.83
2018-04-12T02:17:31.125Z,10.10
2018-04-12T02:20:02.006Z,10.50
2018-04-12T02:22:32.632Z,9.63
2018-04-12T02:25:03.640Z,10.20
2018-04-12T02:27:34.629Z,7.97
2018-04-12T02:30:05.191Z,8.80
2018-04-12T02:32:36.091Z,9.13
2018-04-12T02:35:06.253Z,8.30
2018-04-12T02:37:37.179Z,9.10
2018-04-12T02:40:07.305Z,9.50
2018-04-12T02:42:37.463Z,10.77
2018-04-12T02:45:07.858Z,10.43
2018-04-12T02:47:38.316Z,11.33
2018-04-12T02:50:08.432Z,11.77
2018-04-12T02:52:38.619Z,11.73
2018-04-12T02:55:09.062Z,12.20
2018-04-12T02:57:39.217Z,11.50
2018-04-12T03:00:12.752Z,12.20
2018-04-12T03:02:43.821Z,11.93
2018-04-12T03:05:14.179Z,11.87
2018-04-12T03:07:45.858Z,11.33
2018-04-12T03:10:16.915Z,11.03
2018-04-12T03:12:46.884Z,12.87
2018-04-12T03:15:17.246Z,13.90
2018-04-12T03:17:47.417Z,12.47
2018-04-12T03:20:17.646Z,13.63
2018-04-12T03:22:48.872Z,13.37
2018-04-12T03:25:19.244Z,12.93
2018-04-12T03:27:49.434Z,14.63
2018-04-12T03:30:19.940Z,13.00
2018-04-12T03:32:50.032Z,13.10
2018-04-12T03:35:20.144Z,13.20
2018-04-12T03:37:52.372Z,14.00
2018-04-12T03:40:22.540Z,15.23
2018-04-12T03:42:53.756Z,14.53
2018-04-12T03:45:23.983Z,14.13
2018-04-12T03:47:55.640Z,13.13
2018-04-12T03:50:25.912Z,14.17
2018-04-12T03:52:56.017Z,14.63
2018-04-12T03:55:26.585Z,13.53
2018-04-12T03:57:57.579Z,14.80
2018-04-12T04:00:27.484Z,14.47
2018-04-12T04:02:57.885Z,14.23
2018-04-12T04:05:28.001Z,13.30
2018-04-12T04:07:59.048Z,15.47
2018-04-12T04:10:29.152Z,13.27
2018-04-12T04:12:59.233Z,15.67
2018-04-12T04:15:45.765Z,14.83
2018-04-12T04:18:32.180Z,15.60
2018-04-12T04:21:08.262Z,15.23
2018-04-12T04:23:40.945Z,15.17
2018-04-12T04:26:11.176Z,16.60
2018-04-12T04:28:43.071Z,15.07
2018-04-12T04:31:14.174Z,14.57
2018-04-12T04:33:45.062Z,15.80
2018-04-12T04:36:15.207Z,13.03
2018-04-12T04:38:46.117Z,14.33
2018-04-12T04:41:16.997Z,13.60
2018-04-12T04:43:47.091Z,13.63
2018-04-12T04:46:17.370Z,13.63
2018-04-12T04:48:47.473Z,15.90
2018-04-12T04:51:18.087Z,13.67
2018-04-12T04:53:48.745Z,15.03
2018-04-12T04:56:18.968Z,14.20
2018-04-12T04:58:49.091Z,13.30
2018-04-12T05:01:19.162Z,13.30
2018-04-12T05:03:49.298Z,12.47
2018-04-12T05:06:19.212Z,12.67
2018-04-12T05:08:49.360Z,13.13
2018-04-12T05:11:19.483Z,12.40
2018-04-12T05:13:50.385Z,12.43
2018-04-12T05:16:20.581Z,12.83
2018-04-12T05:18:50.690Z,12.43
2018-04-12T05:21:20.828Z,12.13
2018-04-12T05:23:50.716Z,12.00
2018-04-12T05:26:20.611Z,12.00
2018-04-12T05:28:50.477Z,11.43
2018-04-12T05:31:20.650Z,12.67
2018-04-12T05:33:50.950Z,12.57
2018-04-12T05:36:21.068Z,12.50
2018-04-12T05:38:51.215Z,10.63
2018-04-12T05:41:22.067Z,10.80
2018-04-12T05:43:53.145Z,11.03
2018-04-12T05:46:23.274Z,11.37
2018-04-12T05:48:54.360Z,11.27
2018-04-12T05:51:24.456Z,10.23
2018-04-12T05:53:54.757Z,10.40
2018-04-12T05:56:26.104Z,9.90
2018-04-12T05:58:56.708Z,10.13
2018-04-12T06:01:26.827Z,9.97
2018-04-12T06:03:56.932Z,8.87
2018-04-12T06:06:27.101Z,10.93
2018-04-12T06:08:57.987Z,8.90
2018-04-12T06:11:29.114Z,8.80
2018-04-12T06:13:59.955Z,10.17
2018-04-12T06:16:30.305Z,8.43
2018-04-12T06:19:00.588Z,9.13
2018-04-12T06:21:31.466Z,9.10
2018-04-12T06:24:01.613Z,9.00
2018-04-12T06:26:32.431Z,7.60
2018-04-12T06:29:02.526Z,8.13
2018-04-12T06:31:32.885Z,7.60
2018-04-12T06:34:02.970Z,7.87
2018-04-12T06:36:33.076Z,7.80
2018-04-12T06:39:03.564Z,8.20
2018-04-12T06:41:33.858Z,8.37
2018-04-12T06:44:04.650Z,7.83
2018-04-12T06:46:34.748Z,7.17
2018-04-12T06:49:05.468Z,8.50
2018-04-12T06:51:36.111Z,7.70
2018-04-12T06:54:07.578Z,6.22
2018-04-12T06:56:38.373Z,6.12
2018-04-12T06:59:09.221Z,6.70
2018-04-12T07:01:40.176Z,5.78
2018-04-12T07:04:10.472Z,6.22
2018-04-12T07:06:41.132Z,6.55
2018-04-12T07:09:11.235Z,6.67
2018-04-12T07:11:41.341Z,6.30
2018-04-12T07:14:11.443Z,5.53
2018-04-12T07:16:41.541Z,6.00
2018-04-12T07:19:13.426Z,5.63
2018-04-12T07:21:44.437Z,6.03
2018-04-12T07:24:14.524Z,5.50
2018-04-12T07:26:44.599Z,5.00
2018-04-12T07:29:14.888Z,5.03
2018-04-12T07:31:44.996Z,5.60
2018-04-12T07:34:15.048Z,5.10
2018-04-12T07:36:45.380Z,5.03
2018-04-12T07:39:15.673Z,4.77
2018-04-12T07:41:46.541Z,5.60
2018-04-12T07:44:16.688Z,4.27
2018-04-12T07:46:47.527Z,4.10
2018-04-12T07:49:18.460Z,4.15
2018-04-12T07:51:49.865Z,3.67
2018-04-12T07:54:20.907Z,4.28
2018-04-12T07:56:51.792Z,4.60
2018-04-12T07:59:22.616Z,4.12
2018-04-12T08:01:53.863Z,3.70
2018-04-12T08:04:24.489Z,3.47
2018-04-12T08:06:54.555Z,3.17
2018-04-12T08:09:24.638Z,3.20
2018-04-12T08:11:54.740Z,3.00
2018-04-12T08:14:25.753Z,2.50
2018-04-12T08:16:55.605Z,2.10
2018-04-12T08:19:25.697Z,2.20
2018-04-12T08:21:55.825Z,1.90
2018-04-12T08:24:26.177Z,1.80
2018-04-12T08:26:56.573Z,2.00
2018-04-12T08:29:27.661Z,1.50
2018-04-12T08:31:57.757Z,1.50
2018-04-12T08:34:28.569Z,1.57
2018-04-12T08:36:58.706Z,1.47
2018-04-12T08:39:28.823Z,1.20
2018-04-12T08:41:58.900Z,1.60
2018-04-12T08:44:28.972Z,1.43
2018-04-12T08:47:00.629Z,1.30
2018-04-12T08:49:31.408Z,1.43
2018-04-12T08:52:02.324Z,1.50
2018-04-12T08:54:32.604Z,1.70
2018-04-12T08:57:02.709Z,1.50
2018-04-12T08:59:32.797Z,1.47
2018-04-12T09:02:03.364Z,1.10
2018-04-12T09:04:33.463Z,1.13
2018-04-12T09:07:03.743Z,1.20
2018-04-12T09:09:33.505Z,1.00
2018-04-12T09:12:03.599Z,1.40
2018-04-12T09:14:35.610Z,1.20
2018-04-12T09:17:05.679Z,0.83
2018-04-12T09:19:35.779Z,1.10
2018-04-12T09:22:06.055Z,1.33
2018-04-12T09:24:36.412Z,1.50
2018-04-12T09:27:06.974Z,1.40
2018-04-12T09:29:37.809Z,1.33
2018-04-12T09:32:08.120Z,1.40
2018-04-12T09:34:38.181Z,1.13
2018-04-12T09:37:08.464Z,1.30
2018-04-12T09:39:38.595Z,1.63
2018-04-12T09:42:08.368Z,1.43
2018-04-12T09:44:38.104Z,1.63
2018-04-12T09:47:08.393Z,1.67
2018-04-12T09:49:38.665Z,1.47
2018-04-12T09:52:08.937Z,1.77
2018-04-12T09:54:40.187Z,1.70
2018-04-12T09:57:11.053Z,1.73
2018-04-12T09:59:41.134Z,1.43
2018-04-12T10:02:11.004Z,1.50
2018-04-12T10:04:46.383Z,1.30
2018-04-12T10:07:17.352Z,1.40
2018-04-12T10:09:47.611Z,1.30
2018-04-12T10:12:18.001Z,1.37
2018-04-12T10:14:48.831Z,1.30
2018-04-12T10:17:19.719Z,1.30
2018-04-12T10:19:50.790Z,1.97
2018-04-12T10:22:20.863Z,1.20
2018-04-12T10:24:50.956Z,1.77
2018-04-12T10:27:21.811Z,1.20
2018-04-12T10:29:52.221Z,1.20
2018-04-12T10:32:23.392Z,1.37
2018-04-12T10:34:54.216Z,1.33
2018-04-12T10:37:24.640Z,1.30
2018-04-12T10:39:55.319Z,1.35
2018-04-12T10:42:26.191Z,1.30
2018-04-12T10:44:56.589Z,1.10
2018-04-12T10:47:28.015Z,1.20
2018-04-12T10:49:58.651Z,1.23
2018-04-12T10:52:28.972Z,1.10
2018-04-12T10:55:00.371Z,1.23
2018-04-12T10:57:30.998Z,0.90
2018-04-12T11:00:02.221Z,0.93
2018-04-12T11:02:33.055Z,0.90
2018-04-12T11:05:03.972Z,1.00
2018-04-12T11:07:34.601Z,1.00
2018-04-12T11:10:04.591Z,1.27
2018-04-12T11:12:36.000Z,1.10
2018-04-12T11:15:06.291Z,1.20
2018-04-12T11:17:36.939Z,1.00
2018-04-12T11:20:07.780Z,1.10
2018-04-12T11:22:38.440Z,1.00
2018-04-12T11:25:09.103Z,0.60
2018-04-12T11:27:39.948Z,1.00
2018-04-12T11:30:10.584Z,1.02
2018-04-12T11:32:42.196Z,0.80
2018-04-12T11:35:12.852Z,0.60
2018-04-12T11:37:43.499Z,0.90
2018-04-12T11:40:14.124Z,1.42
2018-04-12T11:42:44.960Z,1.67
2018-04-12T11:45:15.613Z,1.33
2018-04-12T11:47:46.251Z,0.90
2018-04-12T11:50:17.519Z,1.02
2018-04-12T11:52:48.160Z,1.08
2018-04-12T11:55:18.790Z,1.10
2018-04-12T11:57:49.704Z,0.90
2018-04-12T12:00:20.296Z,1.10
2018-04-12T12:02:51.871Z,1.00
2018-04-12T12:05:22.480Z,0.70
2018-04-12T12:07:53.320Z,0.90
2018-04-12T12:10:23.949Z,0.80
2018-04-12T12:12:54.614Z,0.90
2018-04-12T12:15:25.271Z,0.90
2018-04-12T12:17:56.689Z,0.80
2018-04-12T12:20:27.611Z,1.00
2018-04-12T12:22:58.277Z,1.00
2018-04-12T12:25:29.706Z,0.77
2018-04-12T12:28:00.332Z,0.70
2018-04-12T12:30:31.493Z,0.80
2018-04-12T12:33:02.319Z,0.90
2018-04-12T12:35:32.961Z,0.80
2018-04-12T12:38:04.136Z,1.00
2018-04-12T12:40:36.604Z,0.68
2018-04-12T12:43:07.456Z,0.90
2018-04-12T12:45:38.271Z,1.00
2018-04-12T12:48:09.683Z,1.00
2018-04-12T12:50:40.312Z,1.10
2018-04-12T12:53:11.123Z,1.00
2018-04-12T12:55:41.977Z,1.00
2018-04-12T12:58:12.601Z,1.10
2018-04-12T13:00:43.228Z,1.10
2018-04-12T13:03:14.108Z,0.90
2018-04-12T13:05:44.517Z,1.23
2018-04-12T13:08:15.148Z,1.40
2018-04-12T13:10:45.782Z,0.95
2018-04-12T13:13:16.411Z,0.62
2018-04-12T13:15:47.232Z,1.10
2018-04-12T13:18:18.115Z,3.10
2018-04-12T13:20:48.944Z,5.97
2018-04-12T13:23:19.380Z,6.22
2018-04-12T13:25:50.028Z,6.03
2018-04-12T13:28:20.453Z,5.43
2018-04-12T13:30:51.867Z,5.10
2018-04-12T13:33:22.521Z,5.68
2018-04-12T13:35:53.010Z,5.60
2018-04-12T13:38:24.896Z,5.78
2018-04-12T13:40:56.199Z,5.95
2018-04-12T13:43:27.065Z,7.03
2018-04-12T13:45:57.478Z,6.57
2018-04-12T13:48:28.834Z,6.25
2018-04-12T13:50:59.471Z,6.72
2018-04-12T13:53:29.919Z,6.07
2018-04-12T13:56:00.786Z,6.60
2018-04-12T13:58:32.202Z,6.40
2018-04-12T14:01:02.920Z,6.25
2018-04-12T14:03:33.768Z,6.20
2018-04-12T14:06:04.604Z,6.12
2018-04-12T14:08:35.482Z,6.25
2018-04-12T14:11:06.153Z,5.97
2018-04-12T14:13:36.569Z,6.47
2018-04-12T14:16:07.403Z,6.80
2018-04-12T14:18:38.337Z,6.43
2018-04-12T14:21:08.734Z,6.32
2018-04-12T14:23:39.452Z,6.45
2018-04-12T14:26:09.614Z,7.10
2018-04-12T14:28:40.233Z,6.43
2018-04-12T14:31:10.897Z,7.47
2018-04-12T14:33:40.994Z,7.87
2018-04-12T14:36:12.370Z,7.40
2018-04-12T14:38:42.669Z,6.73
2018-04-12T14:41:13.121Z,6.93
2018-04-12T14:43:43.223Z,7.00
2018-04-12T14:46:14.202Z,7.60
2018-04-12T14:48:44.410Z,7.47
2018-04-12T14:51:14.839Z,7.20
2018-04-12T14:53:44.970Z,7.00
2018-04-12T14:56:15.912Z,7.10
2018-04-12T14:58:46.302Z,6.77
2018-04-12T15:01:16.388Z,7.10
2018-04-12T15:03:47.827Z,6.97
2018-04-12T15:06:17.915Z,7.10
2018-04-12T15:08:49.076Z,7.30
2018-04-12T15:11:19.290Z,7.27
2018-04-12T15:13:49.372Z,6.77
2018-04-12T15:16:19.676Z,7.27
2018-04-12T15:18:49.423Z,6.73
2018-04-12T15:21:19.688Z,7.10
2018-04-12T15:23:49.824Z,7.00
2018-04-12T15:26:19.958Z,7.07
2018-04-12T15:28:49.499Z,7.13
2018-04-12T15:31:20.477Z,7.43
2018-04-12T15:33:50.592Z,7.40
2018-04-12T15:36:20.686Z,6.47
2018-04-12T15:38:50.738Z,6.43
2018-04-12T15:41:20.813Z,7.63
2018-04-12T15:43:51.481Z,7.40
2018-04-12T15:46:22.134Z,7.28
2018-04-12T15:48:52.781Z,6.55
2018-04-12T15:51:22.865Z,6.25
2018-04-12T15:53:52.951Z,6.47
2018-04-12T15:56:23.848Z,6.50
2018-04-12T15:58:54.152Z,7.17
2018-04-12T16:01:25.826Z,7.27
2018-04-12T16:03:57.006Z,7.33
2018-04-12T16:06:27.887Z,6.90
2018-04-12T16:08:58.235Z,6.60
2018-04-12T16:11:28.383Z,6.78
2018-04-12T16:13:59.016Z,6.82
2018-04-12T16:16:29.878Z,7.18
2018-04-12T16:19:00.360Z,6.68
2018-04-12T16:21:31.307Z,8.05
2018-04-12T16:24:01.975Z,7.62
2018-04-12T16:26:32.645Z,6.72
2018-04-12T16:29:03.301Z,7.03
2018-04-12T16:31:33.959Z,6.07
2018-04-12T16:34:04.608Z,6.68
2018-04-12T16:36:35.242Z,6.78
2018-04-12T16:39:06.693Z,6.80
2018-04-12T16:41:37.489Z,6.82
2018-04-12T16:44:09.760Z,7.45
2018-04-12T16:46:39.847Z,7.60
2018-04-12T16:49:10.145Z,7.67
2018-04-12T16:51:40.119Z,7.80
2018-04-12T16:54:11.195Z,6.77
2018-04-12T16:56:41.285Z,7.40
2018-04-12T16:59:11.376Z,7.50
2018-04-12T17:01:42.252Z,7.63
2018-04-12T17:04:12.626Z,7.33
2018-04-12T17:06:43.446Z,7.00
2018-04-12T17:09:13.553Z,7.27
2018-04-12T17:11:43.701Z,6.67
2018-04-12T17:14:13.597Z,7.50
2018-04-12T17:16:43.708Z,7.37
2018-04-12T17:19:14.099Z,7.17
2018-04-12T17:21:43.834Z,7.43
2018-04-12T17:24:13.920Z,7.53
2018-04-12T17:26:43.766Z,6.90
2018-04-12T17:29:13.874Z,6.00
2018-04-12T17:31:43.983Z,6.50
2018-04-12T17:34:14.567Z,6.93
2018-04-12T17:36:44.652Z,6.63
2018-04-12T17:39:14.638Z,7.20
2018-04-12T17:41:45.461Z,7.03
2018-04-12T17:44:15.560Z,6.90
2018-04-12T17:46:45.642Z,6.77
2018-04-12T17:49:16.672Z,7.30
2018-04-12T17:51:46.751Z,6.50
2018-04-12T17:54:16.864Z,6.17
2018-04-12T17:56:46.949Z,7.73
2018-04-12T17:59:17.053Z,7.43
2018-04-12T18:01:47.142Z,8.23
2018-04-12T18:04:17.435Z,9.30
2018-04-12T18:06:48.594Z,8.00
2018-04-12T18:09:18.690Z,8.30
2018-04-12T18:11:48.826Z,8.13
2018-04-12T18:14:19.157Z,7.63
2018-04-12T18:16:49.438Z,7.80
2018-04-12T18:19:19.535Z,7.53
2018-04-12T18:21:49.623Z,6.80
2018-04-12T18:24:19.701Z,6.30
2018-04-12T18:26:50.577Z,8.00
2018-04-12T18:29:20.675Z,7.13
2018-04-12T18:31:51.040Z,8.90
2018-04-12T18:34:21.359Z,8.27
2018-04-12T18:36:52.065Z,7.37
2018-04-12T18:39:22.934Z,9.10
2018-04-12T18:41:54.702Z,8.30
2018-04-12T18:44:25.131Z,7.57
2018-04-12T18:46:55.247Z,6.27
2018-04-12T18:49:27.164Z,6.27
2018-04-12T18:51:57.256Z,7.57
2018-04-12T18:54:27.834Z,7.53
2018-04-12T18:56:57.928Z,9.93
2018-04-12T18:59:30.175Z,7.13
2018-04-12T19:02:00.984Z,9.03
2018-04-12T19:04:32.829Z,8.83
2018-04-12T19:07:03.230Z,9.33
2018-04-12T19:09:34.753Z,9.77
2018-04-12T19:12:05.920Z,9.27
2018-04-12T19:14:37.171Z,8.63
2018-04-12T19:17:08.259Z,8.80
2018-04-12T19:19:38.424Z,10.20
2018-04-12T19:22:08.557Z,10.57
2018-04-12T19:24:39.731Z,9.60
2018-04-12T19:27:10.057Z,9.73
2018-04-12T19:29:41.724Z,10.10
2018-04-12T19:32:13.199Z,9.80
2018-04-12T19:34:44.134Z,9.10
2018-04-12T19:37:14.950Z,8.00
2018-04-12T19:39:48.411Z,9.17
2018-04-12T19:42:18.720Z,9.80
2018-04-12T19:44:48.853Z,8.17
2018-04-12T19:47:19.893Z,7.73
2018-04-12T19:49:51.295Z,7.87
2018-04-12T19:52:21.472Z,7.33
2018-04-12T19:54:51.586Z,7.50
2018-04-12T19:57:21.968Z,7.07
2018-04-12T19:59:52.089Z,6.37
2018-04-12T20:02:23.379Z,7.80
2018-04-12T20:04:54.356Z,7.90
2018-04-12T20:07:24.656Z,6.50
2018-04-12T20:09:54.803Z,8.23
2018-04-12T20:12:24.615Z,7.07
2018-04-12T20:14:54.762Z,7.03
2018-04-12T20:17:24.943Z,6.83
2018-04-12T20:19:55.270Z,7.73
2018-04-12T20:22:25.471Z,6.57
2018-04-12T20:24:55.522Z,8.43
2018-04-12T20:27:26.704Z,6.90
2018-04-12T20:29:57.725Z,7.17
2018-04-12T20:32:27.825Z,7.17
2018-04-12T20:34:58.845Z,6.93
2018-04-12T20:37:28.925Z,7.10
2018-04-12T20:39:59.013Z,6.67
2018-04-12T20:42:29.094Z,7.30
2018-04-12T20:44:59.431Z,7.10
2018-04-12T20:47:29.527Z,6.67
2018-04-12T20:49:59.603Z,6.30
2018-04-12T20:52:29.883Z,6.20
2018-04-12T20:55:00.008Z,6.80
2018-04-12T20:57:30.131Z,6.47
2018-04-12T21:00:00.510Z,5.87
2018-04-12T21:02:30.583Z,5.70
2018-04-12T21:05:00.696Z,6.10
2018-04-12T21:07:30.962Z,6.47
2018-04-12T21:10:01.092Z,5.97
2018-04-12T21:12:31.228Z,5.57
2018-04-12T21:15:01.303Z,6.03
2018-04-12T21:17:31.244Z,7.20
2018-04-12T21:20:01.312Z,6.27
2018-04-12T21:22:31.390Z,7.07
2018-04-12T21:25:01.520Z,6.77
2018-04-12T21:27:31.805Z,6.60
2018-04-12T21:30:02.122Z,6.37
2018-04-12T21:32:32.937Z,5.73
2018-04-12T21:35:03.028Z,5.73
2018-04-12T21:37:34.067Z,5.77
2018-04-12T21:40:04.132Z,5.97
2018-04-12T21:42:34.977Z,5.77
2018-04-12T21:45:05.259Z,5.43
2018-04-12T21:47:35.324Z,4.87
2018-04-12T21:50:04.388Z,5.10
2018-04-12T21:52:34.747Z,5.47
2018-04-12T21:55:05.788Z,4.93
2018-04-12T21:57:35.859Z,4.43
2018-04-12T22:00:05.752Z,4.47
2018-04-12T22:02:35.804Z,5.20
2018-04-12T22:05:05.217Z,5.17
2018-04-12T22:07:35.320Z,4.77
2018-04-12T22:10:05.221Z,5.37
2018-04-12T22:12:35.298Z,6.00
2018-04-12T22:15:05.813Z,5.97
2018-04-12T22:17:35.852Z,5.37
2018-04-12T22:20:05.875Z,5.17
2018-04-12T22:22:37.156Z,5.57
2018-04-12T22:25:07.288Z,5.53
2018-04-12T22:27:38.122Z,5.63
2018-04-12T22:30:08.963Z,5.33
2018-04-12T22:32:39.040Z,5.83
2018-04-12T22:35:10.068Z,5.27
2018-04-12T22:37:40.160Z,5.20
2018-04-12T22:40:10.436Z,6.47
2018-04-12T22:42:40.317Z,5.43
2018-04-12T22:45:10.396Z,5.90
2018-04-12T22:47:40.753Z,6.70
2018-04-12T22:50:10.516Z,7.23
2018-04-12T22:52:42.333Z,7.80
2018-04-12T22:55:13.173Z,6.67
2018-04-12T22:57:43.508Z,8.27
2018-04-12T23:00:13.716Z,8.60
2018-04-12T23:02:44.008Z,7.87
2018-04-12T23:05:14.299Z,9.50
2018-04-12T23:07:45.161Z,10.30
2018-04-12T23:10:15.241Z,10.37
2018-04-12T23:12:45.329Z,10.00
2018-04-12T23:15:15.684Z,12.20
2018-04-12T23:17:46.515Z,11.10
2018-04-12T23:20:16.617Z,11.83
2018-04-12T23:22:47.739Z,11.90
2018-04-12T23:25:18.050Z,11.30
2018-04-12T23:27:49.153Z,11.50
2018-04-12T23:30:19.242Z,14.10
2018-04-12T23:32:49.782Z,12.00
2018-04-12T23:35:20.641Z,12.47
2018-04-12T23:37:50.709Z,11.70
2018-04-12T23:40:20.779Z,9.10
2018-04-12T23:42:50.875Z,10.27
2018-04-12T23:45:20.964Z,10.77
2018-04-12T23:47:51.062Z,12.07
2018-04-12T23:50:21.148Z,11.50
2018-04-12T23:52:51.221Z,10.83
2018-04-12T23:55:21.305Z,11.87
2018-04-12T23:57:51.158Z,11.40
